createdAt,value
2023-02-15T00:02:38.263Z,90.50
2023-02-15T00:05:23.687Z,90.60
2023-02-15T00:08:09.373Z,90.70
2023-02-15T00:11:08.207Z,90.70
2023-02-15T00:13:53.655Z,90.80
2023-02-15T00:16:40.483Z,90.80
2023-02-15T00:19:28.361Z,90.90
2023-02-15T00:22:13.728Z,90.90
2023-02-15T00:24:59.012Z,91.20
2023-02-15T00:27:44.831Z,90.90
2023-02-15T00:30:30.008Z,91.00
2023-02-15T00:33:15.454Z,91.10
2023-02-15T00:36:02.314Z,91.30
2023-02-15T00:38:47.577Z,91.30
2023-02-15T00:41:36.452Z,91.20
2023-02-15T00:44:21.896Z,91.30
2023-02-15T00:47:07.257Z,91.30
2023-02-15T00:49:55.866Z,91.40
2023-02-15T00:52:41.017Z,91.40
2023-02-15T00:55:26.460Z,91.40
2023-02-15T00:58:13.249Z,91.40
2023-02-15T01:01:14.582Z,91.50
2023-02-15T01:04:03.233Z,91.60
2023-02-15T01:06:48.433Z,91.70
2023-02-15T01:09:34.102Z,91.60
2023-02-15T01:12:19.559Z,91.70
2023-02-15T01:15:08.292Z,91.70
2023-02-15T01:17:54.399Z,91.70
2023-02-15T01:20:42.521Z,91.70
2023-02-15T01:23:27.864Z,91.80
2023-02-15T01:26:14.804Z,91.80
2023-02-15T01:29:05.086Z,91.80
2023-02-15T01:31:50.875Z,91.80
2023-02-15T01:34:36.354Z,91.80
2023-02-15T01:37:24.967Z,91.90
2023-02-15T01:40:15.126Z,92.00
2023-02-15T01:43:03.316Z,92.00
2023-02-15T01:45:50.775Z,92.10
2023-02-15T01:48:44.652Z,92.20
2023-02-15T01:51:34.973Z,92.20
2023-02-15T01:54:30.150Z,92.20
2023-02-15T01:57:23.391Z,92.20
2023-02-15T02:00:10.031Z,92.20
2023-02-15T02:02:58.679Z,92.10
2023-02-15T02:05:44.548Z,92.10
2023-02-15T02:08:32.575Z,92.30
2023-02-15T02:11:18.169Z,92.20
2023-02-15T02:14:09.335Z,92.30
2023-02-15T02:17:07.057Z,92.40
2023-02-15T02:20:12.030Z,92.50
2023-02-15T02:23:25.028Z,92.40
2023-02-15T02:26:32.458Z,92.40
2023-02-15T02:29:23.569Z,92.30
2023-02-15T02:32:29.184Z,92.40
2023-02-15T02:35:33.675Z,92.50
2023-02-15T02:38:24.687Z,92.50
2023-02-15T02:41:30.072Z,92.50
2023-02-15T02:44:26.382Z,92.70
2023-02-15T02:47:31.004Z,92.60
2023-02-15T02:50:25.315Z,92.60
2023-02-15T02:53:12.226Z,92.60
2023-02-15T02:56:11.246Z,92.60
2023-02-15T02:59:11.112Z,92.70
2023-02-15T03:02:04.586Z,92.80
2023-02-15T03:04:59.755Z,92.70
2023-02-15T03:07:47.461Z,92.70
2023-02-15T03:10:37.458Z,92.70
2023-02-15T03:13:24.649Z,92.90
2023-02-15T03:16:29.556Z,92.90
2023-02-15T03:19:23.403Z,92.90
2023-02-15T03:22:20.339Z,92.90
2023-02-15T03:25:54.917Z,92.90
2023-02-15T03:28:46.858Z,93.00
2023-02-15T03:31:38.647Z,92.90
2023-02-15T03:34:24.426Z,92.80
2023-02-15T03:37:25.435Z,92.70
2023-02-15T03:40:37.032Z,92.70
2023-02-15T03:43:57.484Z,92.80
2023-02-15T03:47:25.138Z,92.80
2023-02-15T03:50:44.100Z,92.80
2023-02-15T03:53:30.174Z,92.80
2023-02-15T03:56:15.767Z,92.90
2023-02-15T03:59:19.979Z,92.90
2023-02-15T04:02:27.860Z,93.00
2023-02-15T04:05:19.474Z,92.90
2023-02-15T04:08:05.936Z,93.00
2023-02-15T04:10:53.937Z,93.00
2023-02-15T04:13:39.240Z,93.00
2023-02-15T04:16:31.123Z,93.20
2023-02-15T04:19:35.134Z,93.30
2023-02-15T04:22:39.757Z,93.30
2023-02-15T04:25:25.352Z,93.30
2023-02-15T04:28:10.891Z,93.40
2023-02-15T04:30:56.443Z,93.50
2023-02-15T04:33:42.090Z,93.40
2023-02-15T04:36:27.804Z,93.40
2023-02-15T04:39:17.792Z,93.40
2023-02-15T04:42:04.693Z,93.40
2023-02-15T04:44:52.359Z,93.40
2023-02-15T04:47:37.778Z,93.40
2023-02-15T04:50:23.458Z,93.30
2023-02-15T04:53:08.575Z,93.40
2023-02-15T04:56:02.229Z,93.30
2023-02-15T04:58:48.152Z,93.60
2023-02-15T05:01:33.735Z,93.30
2023-02-15T05:04:19.182Z,93.20
2023-02-15T05:07:05.196Z,93.20
2023-02-15T05:09:50.716Z,93.20
2023-02-15T05:12:36.415Z,93.30
2023-02-15T05:15:21.809Z,93.30
2023-02-15T05:18:10.768Z,93.30
2023-02-15T05:20:56.594Z,93.40
2023-02-15T05:23:41.822Z,93.50
2023-02-15T05:26:49.338Z,93.40
2023-02-15T05:29:37.516Z,93.40
2023-02-15T05:32:23.292Z,93.40
2023-02-15T05:35:09.022Z,93.40
2023-02-15T05:37:54.557Z,93.50
2023-02-15T05:40:40.198Z,93.40
2023-02-15T05:43:26.303Z,93.50
2023-02-15T05:46:12.791Z,93.40
2023-02-15T05:48:58.480Z,93.60
2023-02-15T05:51:45.561Z,93.60
2023-02-15T05:54:31.489Z,93.60
2023-02-15T05:57:16.931Z,93.50
2023-02-15T06:00:06.808Z,93.50
2023-02-15T06:02:56.928Z,93.60
2023-02-15T06:05:45.917Z,93.60
2023-02-15T06:08:31.952Z,93.60
2023-02-15T06:11:18.106Z,93.70
2023-02-15T06:14:03.631Z,93.70
2023-02-15T06:16:48.816Z,93.80
2023-02-15T06:19:37.672Z,93.90
2023-02-15T06:22:23.832Z,93.80
2023-02-15T06:25:12.249Z,93.80
2023-02-15T06:27:57.508Z,93.90
2023-02-15T06:30:43.050Z,94.00
2023-02-15T06:33:28.470Z,94.00
2023-02-15T06:36:14.059Z,94.10
2023-02-15T06:38:59.690Z,94.00
2023-02-15T06:41:46.284Z,94.00
2023-02-15T06:44:31.620Z,94.20
2023-02-15T06:47:17.143Z,94.10
2023-02-15T06:50:04.295Z,94.10
2023-02-15T06:52:49.934Z,94.00
2023-02-15T06:55:35.364Z,94.10
2023-02-15T06:58:20.861Z,94.10
2023-02-15T07:01:07.263Z,94.00
2023-02-15T07:03:55.247Z,94.10
2023-02-15T07:06:41.221Z,94.10
2023-02-15T07:09:29.702Z,94.20
2023-02-15T07:12:34.727Z,94.30
2023-02-15T07:15:23.967Z,94.20
2023-02-15T07:18:10.097Z,94.20
2023-02-15T07:20:55.618Z,94.40
2023-02-15T07:23:41.361Z,94.30
2023-02-15T07:26:27.419Z,94.40
2023-02-15T07:29:12.600Z,94.40
2023-02-15T07:31:58.006Z,94.40
2023-02-15T07:34:43.444Z,94.40
2023-02-15T07:37:29.836Z,94.50
2023-02-15T07:40:18.024Z,94.50
2023-02-15T07:43:04.686Z,94.50
2023-02-15T07:45:50.500Z,94.60
2023-02-15T07:48:38.656Z,94.50
2023-02-15T07:51:37.200Z,94.60
2023-02-15T07:54:24.126Z,94.60
2023-02-15T07:57:12.332Z,94.60
2023-02-15T07:59:57.433Z,94.60
2023-02-15T08:02:43.402Z,94.70
2023-02-15T08:05:29.825Z,94.60
2023-02-15T08:08:32.973Z,94.70
2023-02-15T08:11:33.807Z,94.80
2023-02-15T08:14:21.634Z,94.70
2023-02-15T08:17:09.852Z,94.90
2023-02-15T08:19:58.198Z,94.80
2023-02-15T08:22:46.271Z,94.90
2023-02-15T08:25:37.023Z,95.00
2023-02-15T08:28:22.549Z,94.80
2023-02-15T08:31:10.053Z,94.90
2023-02-15T08:33:57.494Z,94.90
2023-02-15T08:36:43.356Z,94.90
2023-02-15T08:39:29.671Z,94.90
2023-02-15T08:42:15.010Z,94.70
2023-02-15T08:45:00.430Z,94.80
2023-02-15T08:47:45.978Z,94.80
2023-02-15T08:50:31.993Z,94.90
2023-02-15T08:53:21.218Z,94.70
2023-02-15T08:56:07.442Z,94.70
2023-02-15T08:58:57.169Z,94.80
2023-02-15T09:01:43.795Z,95.00
2023-02-15T09:04:29.019Z,94.90
2023-02-15T09:07:19.878Z,95.00
2023-02-15T09:10:06.304Z,94.90
2023-02-15T09:12:52.391Z,94.70
2023-02-15T09:15:37.876Z,94.50
2023-02-15T09:18:23.172Z,94.60
2023-02-15T09:21:20.311Z,94.70
2023-02-15T09:24:08.577Z,94.70
2023-02-15T09:26:53.735Z,94.40
2023-02-15T09:29:40.087Z,94.70
2023-02-15T09:32:25.256Z,94.40
2023-02-15T09:35:10.836Z,94.40
2023-02-15T09:37:56.140Z,94.30
2023-02-15T09:41:00.408Z,94.70
2023-02-15T09:44:12.580Z,94.60
2023-02-15T09:47:53.312Z,94.70
2023-02-15T09:50:57.497Z,94.40
2023-02-15T09:54:18.609Z,94.40
2023-02-15T09:57:20.813Z,94.40
2023-02-15T10:00:22.663Z,94.40
2023-02-15T10:03:17.065Z,94.50
2023-02-15T10:06:32.857Z,94.40
2023-02-15T10:09:46.807Z,94.40
2023-02-15T10:12:40.839Z,94.60
2023-02-15T10:15:54.368Z,94.30
2023-02-15T10:19:07.234Z,94.20
2023-02-15T10:22:01.946Z,93.70
2023-02-15T10:25:17.751Z,93.90
2023-02-15T10:28:07.313Z,93.30
2023-02-15T10:31:06.112Z,93.20
2023-02-15T10:34:21.628Z,93.10
2023-02-15T10:37:29.903Z,92.70
2023-02-15T10:40:36.628Z,92.90
2023-02-15T10:43:25.512Z,93.10
2023-02-15T10:46:48.692Z,92.80
2023-02-15T10:49:52.860Z,92.80
2023-02-15T10:52:39.281Z,92.90
2023-02-15T10:55:39.814Z,92.00
2023-02-15T10:58:47.269Z,92.20
2023-02-15T11:01:54.548Z,91.70
2023-02-15T11:04:53.988Z,91.70
2023-02-15T11:07:46.786Z,92.40
2023-02-15T11:10:36.957Z,92.30
2023-02-15T11:13:28.530Z,91.20
2023-02-15T11:16:28.998Z,91.70
2023-02-15T11:19:20.653Z,91.20
2023-02-15T11:22:07.971Z,90.70
2023-02-15T11:24:58.490Z,88.40
2023-02-15T11:27:47.770Z,86.70
2023-02-15T11:30:45.797Z,85.90
2023-02-15T11:33:38.455Z,84.30
2023-02-15T11:36:28.484Z,82.70
2023-02-15T11:39:18.315Z,81.50
2023-02-15T11:42:12.672Z,80.60
2023-02-15T11:45:17.947Z,76.10
2023-02-15T11:48:16.931Z,74.00
2023-02-15T11:51:04.440Z,68.40
2023-02-15T11:53:51.154Z,66.70
2023-02-15T11:56:39.284Z,64.50
2023-02-15T11:59:35.940Z,61.90
2023-02-15T12:02:23.609Z,61.60
2023-02-15T12:05:24.093Z,62.20
2023-02-15T12:08:15.890Z,59.40
2023-02-15T12:11:16.601Z,59.00
2023-02-15T12:14:08.083Z,57.60
2023-02-15T12:16:58.219Z,57.80
2023-02-15T12:19:44.716Z,57.00
2023-02-15T12:22:37.152Z,56.30
2023-02-15T12:25:55.237Z,51.20
2023-02-15T12:28:50.145Z,51.40
2023-02-15T12:31:42.995Z,48.30
2023-02-15T12:34:37.016Z,44.50
2023-02-15T12:37:29.420Z,42.30
2023-02-15T12:40:26.740Z,43.20
2023-02-15T12:43:38.779Z,41.70
2023-02-15T12:46:42.694Z,42.60
2023-02-15T12:49:36.624Z,43.30
2023-02-15T12:52:21.709Z,44.30
2023-02-15T12:55:31.739Z,44.80
2023-02-15T12:58:42.589Z,46.00
2023-02-15T13:01:33.114Z,47.00
2023-02-15T13:04:28.476Z,48.20
2023-02-15T13:07:14.635Z,48.10
2023-02-15T13:10:25.677Z,48.50
2023-02-15T13:13:23.419Z,49.50
2023-02-15T13:16:14.336Z,49.90
2023-02-15T13:19:05.422Z,49.50
2023-02-15T13:21:53.891Z,49.60
2023-02-15T13:24:44.222Z,48.40
2023-02-15T13:27:39.436Z,48.40
2023-02-15T13:30:39.849Z,49.10
2023-02-15T13:33:35.098Z,50.10
2023-02-15T13:36:29.582Z,50.20
2023-02-15T13:39:53.084Z,50.40
2023-02-15T13:42:48.545Z,50.90
2023-02-15T13:45:54.399Z,51.60
2023-02-15T13:48:54.068Z,50.40
2023-02-15T13:51:50.648Z,50.10
2023-02-15T13:55:11.364Z,50.20
2023-02-15T13:58:06.087Z,48.50
2023-02-15T14:01:02.767Z,47.60
2023-02-15T14:03:51.498Z,47.70
2023-02-15T14:06:47.714Z,48.50
2023-02-15T14:10:03.618Z,49.00
2023-02-15T14:13:21.029Z,48.70
2023-02-15T14:16:12.281Z,48.40
2023-02-15T14:19:24.733Z,48.10
2023-02-15T14:22:32.843Z,48.40
2023-02-15T14:25:39.274Z,45.70
2023-02-15T14:28:46.105Z,43.10
2023-02-15T14:31:42.037Z,41.40
2023-02-15T14:34:43.411Z,41.00
2023-02-15T14:37:47.539Z,42.20
2023-02-15T14:41:07.562Z,44.50
2023-02-15T14:43:58.968Z,45.80
2023-02-15T14:47:25.843Z,47.30
2023-02-15T14:50:34.704Z,49.10
2023-02-15T14:53:43.074Z,50.10
2023-02-15T14:56:29.791Z,50.90
2023-02-15T14:59:21.711Z,51.50
2023-02-15T15:02:10.110Z,52.20
2023-02-15T15:05:24.492Z,53.10
2023-02-15T15:08:42.889Z,53.40
2023-02-15T15:11:43.137Z,53.40
2023-02-15T15:14:33.132Z,54.10
2023-02-15T15:17:39.209Z,54.80
2023-02-15T15:20:28.096Z,55.70
2023-02-15T15:23:16.771Z,56.50
2023-02-15T15:26:22.950Z,57.30
2023-02-15T15:29:13.797Z,57.90
2023-02-15T15:32:02.274Z,58.60
2023-02-15T15:35:22.213Z,59.10
2023-02-15T15:38:16.961Z,59.60
2023-02-15T15:41:17.295Z,60.10
2023-02-15T15:44:32.189Z,60.50
2023-02-15T15:47:23.952Z,61.00
2023-02-15T15:50:18.485Z,62.00
2023-02-15T15:53:05.254Z,62.70
2023-02-15T15:55:56.668Z,63.40
2023-02-15T15:58:51.107Z,64.00
2023-02-15T16:01:42.198Z,65.00
2023-02-15T16:04:33.294Z,65.60
2023-02-15T16:07:18.950Z,66.40
2023-02-15T16:10:25.068Z,67.20
2023-02-15T16:13:15.362Z,67.70
2023-02-15T16:16:00.811Z,68.50
2023-02-15T16:18:48.060Z,69.00
2023-02-15T16:21:37.344Z,69.50
2023-02-15T16:24:25.631Z,70.10
2023-02-15T16:27:35.011Z,70.70
2023-02-15T16:30:37.514Z,71.10
2023-02-15T16:33:22.949Z,71.20
2023-02-15T16:36:23.443Z,71.50
2023-02-15T16:39:17.662Z,72.20
2023-02-15T16:42:06.639Z,72.70
2023-02-15T16:44:58.811Z,73.20
2023-02-15T16:47:53.137Z,73.00
2023-02-15T16:50:39.862Z,72.90
2023-02-15T16:53:28.467Z,73.50
2023-02-15T16:56:33.859Z,73.80
2023-02-15T16:59:31.338Z,74.20
2023-02-15T17:02:40.174Z,74.80
2023-02-15T17:05:40.528Z,75.20
2023-02-15T17:08:35.149Z,75.60
2023-02-15T17:11:22.738Z,75.80
2023-02-15T17:14:10.463Z,76.30
2023-02-15T17:17:07.083Z,76.70
2023-02-15T17:19:56.097Z,76.90
2023-02-15T17:22:41.624Z,77.20
2023-02-15T17:25:38.102Z,77.70
2023-02-15T17:28:30.441Z,78.00
2023-02-15T17:31:18.576Z,78.20
2023-02-15T17:34:07.396Z,78.50
2023-02-15T17:37:03.374Z,78.60
2023-02-15T17:39:52.098Z,78.80
2023-02-15T17:42:37.484Z,79.30
2023-02-15T17:45:26.197Z,79.30
2023-02-15T17:48:21.689Z,79.40
2023-02-15T17:51:12.068Z,79.70
2023-02-15T17:54:16.163Z,79.80
2023-02-15T17:57:05.776Z,80.00
2023-02-15T18:00:09.826Z,80.20
2023-02-15T18:03:16.869Z,80.40
2023-02-15T18:06:20.648Z,80.40
2023-02-15T18:09:24.981Z,80.40
2023-02-15T18:12:29.653Z,80.50
2023-02-15T18:15:15.191Z,80.40
2023-02-15T18:18:00.883Z,80.30
2023-02-15T18:20:48.602Z,80.20
2023-02-15T18:23:34.301Z,80.30
2023-02-15T18:26:23.335Z,80.30
2023-02-15T18:29:12.957Z,80.30
2023-02-15T18:32:02.121Z,80.30
2023-02-15T18:34:49.187Z,80.30
2023-02-15T18:37:37.734Z,80.30
2023-02-15T18:40:31.438Z,80.30
2023-02-15T18:43:17.163Z,80.20
2023-02-15T18:46:02.757Z,80.30
2023-02-15T18:48:48.394Z,80.30
2023-02-15T18:51:39.997Z,80.40
2023-02-15T18:54:25.798Z,80.60
2023-02-15T18:57:13.808Z,80.50
2023-02-15T18:59:59.796Z,80.40
2023-02-15T19:02:46.021Z,81.20
2023-02-15T19:05:32.750Z,80.40
2023-02-15T19:08:22.051Z,80.30
2023-02-15T19:11:13.268Z,80.50
2023-02-15T19:13:58.971Z,80.60
2023-02-15T19:16:44.619Z,80.70
2023-02-15T19:19:30.041Z,80.70
2023-02-15T19:22:25.288Z,80.90
2023-02-15T19:25:37.479Z,81.00
2023-02-15T19:28:34.503Z,80.90
2023-02-15T19:31:20.235Z,81.00
2023-02-15T19:34:16.671Z,81.00
2023-02-15T19:37:05.484Z,81.10
2023-02-15T19:39:50.794Z,81.30
2023-02-15T19:42:36.384Z,81.30
2023-02-15T19:45:24.260Z,81.30
2023-02-15T19:48:13.710Z,81.20
2023-02-15T19:50:59.459Z,81.40
2023-02-15T19:53:47.822Z,81.50
2023-02-15T19:56:33.160Z,81.30
2023-02-15T19:59:24.032Z,81.50
2023-02-15T20:02:22.806Z,81.40
2023-02-15T20:05:08.272Z,81.60
2023-02-15T20:07:54.108Z,81.70
2023-02-15T20:10:39.219Z,82.00
2023-02-15T20:13:25.209Z,82.20
2023-02-15T20:16:11.223Z,82.20
2023-02-15T20:18:56.680Z,82.30
2023-02-15T20:21:54.650Z,82.50
2023-02-15T20:24:39.808Z,82.30
2023-02-15T20:27:28.989Z,82.40
2023-02-15T20:30:17.217Z,82.30
2023-02-15T20:33:03.974Z,82.50
2023-02-15T20:35:51.687Z,82.40
2023-02-15T20:38:39.973Z,82.40
2023-02-15T20:41:37.541Z,82.60
2023-02-15T20:44:29.181Z,82.70
2023-02-15T20:47:14.551Z,82.70
2023-02-15T20:50:00.400Z,82.60
2023-02-15T20:52:46.945Z,82.30
2023-02-15T20:55:32.579Z,82.30
2023-02-15T20:58:24.710Z,82.30
2023-02-15T21:01:12.043Z,82.40
2023-02-15T21:03:57.372Z,82.70
2023-02-15T21:06:45.158Z,82.90
2023-02-15T21:09:31.932Z,83.10
2023-02-15T21:12:19.517Z,82.90
2023-02-15T21:15:19.945Z,82.70
2023-02-15T21:18:07.716Z,82.60
2023-02-15T21:20:55.885Z,82.40
2023-02-15T21:23:43.664Z,82.20
2023-02-15T21:26:29.241Z,82.00
2023-02-15T21:29:17.879Z,81.90
2023-02-15T21:32:04.009Z,81.50
2023-02-15T21:34:49.429Z,81.20
2023-02-15T21:37:39.989Z,81.00
2023-02-15T21:40:31.049Z,81.00
2023-02-15T21:43:44.188Z,80.70
2023-02-15T21:46:48.151Z,80.60
2023-02-15T21:49:33.203Z,80.80
2023-02-15T21:52:23.086Z,81.10
2023-02-15T21:55:14.792Z,81.30
2023-02-15T21:58:16.929Z,81.60
2023-02-15T22:01:03.234Z,81.50
2023-02-15T22:03:49.147Z,81.60
2023-02-15T22:06:37.261Z,81.50
2023-02-15T22:09:26.726Z,81.40
2023-02-15T22:12:17.531Z,81.60
2023-02-15T22:15:06.913Z,82.00
2023-02-15T22:17:53.465Z,82.10
2023-02-15T22:20:39.108Z,82.50
2023-02-15T22:23:24.569Z,82.50
2023-02-15T22:26:25.014Z,83.00
2023-02-15T22:29:17.253Z,83.10
2023-02-15T22:32:02.425Z,83.20
2023-02-15T22:34:48.010Z,83.50
2023-02-15T22:37:36.902Z,83.70
2023-02-15T22:40:29.156Z,83.50
2023-02-15T22:43:28.170Z,83.80
2023-02-15T22:46:24.845Z,83.90
2023-02-15T22:49:14.171Z,84.10
2023-02-15T22:51:59.735Z,84.30
2023-02-15T22:54:46.124Z,84.50
2023-02-15T22:57:32.441Z,84.60
2023-02-15T23:00:30.629Z,84.80
2023-02-15T23:03:18.358Z,85.10
2023-02-15T23:06:04.313Z,85.50
2023-02-15T23:08:50.030Z,85.90
2023-02-15T23:11:35.651Z,86.30
2023-02-15T23:14:27.371Z,86.70
2023-02-15T23:17:13.146Z,86.90
2023-02-15T23:19:58.602Z,87.20
2023-02-15T23:22:44.662Z,88.00
2023-02-15T23:25:30.085Z,87.60
2023-02-15T23:28:25.918Z,87.90
2023-02-15T23:31:29.098Z,87.90
2023-02-15T23:34:23.535Z,88.20
2023-02-15T23:37:12.837Z,88.40
2023-02-15T23:40:20.206Z,88.60
2023-02-15T23:43:10.353Z,88.70
2023-02-15T23:45:55.669Z,88.70
2023-02-15T23:48:41.221Z,88.70
2023-02-15T23:51:32.790Z,88.80
2023-02-15T23:54:20.396Z,88.80
2023-02-15T23:57:08.064Z,89.00
2023-02-15T23:59:53.426Z,89.10
